createdAt,value
2023-05-22T00:02:58.258Z,16.4
2023-05-22T00:09:02.405Z,16.4
2023-05-22T00:14:38.700Z,16.4
2023-05-22T00:20:15.433Z,16.4
2023-05-22T00:25:51.573Z,16.4
2023-05-22T00:31:30.973Z,16.3
2023-05-22T00:37:56.110Z,16.3
2023-05-22T00:43:41.197Z,16.3
2023-05-22T00:49:42.762Z,16.3
2023-05-22T00:55:16.181Z,16.3
2023-05-22T01:00:51.715Z,16.3
2023-05-22T01:06:27.289Z,16.3
2023-05-22T01:12:11.810Z,16.2
2023-05-22T01:18:02.037Z,16.2
2023-05-22T01:23:37.715Z,16.2
2023-05-22T01:29:14.606Z,16.2
2023-05-22T01:34:54.307Z,16.2
2023-05-22T01:40:42.923Z,16.2
2023-05-22T01:46:18.603Z,16.2
2023-05-22T01:52:20.568Z,16.1
2023-05-22T01:58:08.613Z,16.1
2023-05-22T02:04:07.745Z,16.1
2023-05-22T02:09:54.000Z,16.1
2023-05-22T02:15:36.867Z,16.1
2023-05-22T02:21:12.920Z,16.1
2023-05-22T02:27:04.378Z,16
2023-05-22T02:32:39.799Z,16
2023-05-22T02:38:16.214Z,16
2023-05-22T02:44:00.723Z,16
2023-05-22T02:50:00.393Z,16.1
2023-05-22T02:55:33.268Z,16
2023-05-22T03:01:10.981Z,16
2023-05-22T03:06:46.727Z,16
2023-05-22T03:12:21.977Z,16
2023-05-22T03:18:29.002Z,16
2023-05-22T03:24:18.450Z,16
2023-05-22T03:30:08.543Z,16
2023-05-22T03:36:05.167Z,16
2023-05-22T03:41:41.115Z,15.9
2023-05-22T03:47:21.575Z,15.9
2023-05-22T03:52:57.334Z,15.9
2023-05-22T03:58:34.317Z,15.9
2023-05-22T04:04:19.300Z,15.9
2023-05-22T04:09:57.662Z,15.9
2023-05-22T04:15:42.153Z,15.9
2023-05-22T04:21:37.378Z,15.9
2023-05-22T04:27:13.598Z,15.9
2023-05-22T04:32:50.249Z,15.9
2023-05-22T04:38:58.589Z,15.8
2023-05-22T04:45:12.421Z,15.8
2023-05-22T04:51:12.488Z,15.8
2023-05-22T04:56:46.756Z,15.8
2023-05-22T05:02:22.656Z,15.8
2023-05-22T05:07:59.443Z,15.8
2023-05-22T05:13:35.757Z,15.8
2023-05-22T05:19:11.069Z,15.8
2023-05-22T05:24:47.348Z,15.7
2023-05-22T05:30:26.856Z,15.7
2023-05-22T05:36:31.639Z,15.4
2023-05-22T05:42:09.427Z,15.4
2023-05-22T05:47:45.866Z,15.4
2023-05-22T05:53:41.465Z,15.3
2023-05-22T05:59:22.365Z,15.4
2023-05-22T06:04:57.952Z,15.3
2023-05-22T06:10:33.840Z,15.4
2023-05-22T06:16:18.831Z,15.4
2023-05-22T06:22:07.470Z,15.4
2023-05-22T06:27:42.864Z,15.5
2023-05-22T06:33:18.557Z,15.6
2023-05-22T06:38:55.834Z,15.9
2023-05-22T06:44:35.415Z,15.9
2023-05-22T06:50:33.578Z,15.9
2023-05-22T06:56:07.207Z,15.9
2023-05-22T07:01:49.162Z,16.1
2023-05-22T07:07:25.905Z,16.2
2023-05-22T07:13:01.989Z,16.3
2023-05-22T07:18:48.492Z,16.7
2023-05-22T07:24:32.968Z,17.2
2023-05-22T07:30:31.178Z,17.8
2023-05-22T07:36:26.102Z,17.5
2023-05-22T07:42:20.000Z,17.1
2023-05-22T07:48:05.627Z,17.5
2023-05-22T07:53:44.746Z,17.4
2023-05-22T07:59:30.248Z,17.7
2023-05-22T08:05:06.385Z,18.1
2023-05-22T08:10:52.413Z,18.6
2023-05-22T08:16:43.649Z,19.1
2023-05-22T08:22:20.259Z,20
2023-05-22T08:27:57.842Z,19.9
2023-05-22T08:33:53.356Z,19.7
2023-05-22T08:39:31.167Z,19.5
2023-05-22T08:45:07.796Z,19
2023-05-22T08:51:07.923Z,18.8
2023-05-22T08:56:49.355Z,18.6
2023-05-22T09:02:49.083Z,18.8
2023-05-22T09:08:51.544Z,18.8
2023-05-22T09:15:40.395Z,19.3
2023-05-22T09:21:29.306Z,19.2
2023-05-22T09:27:28.034Z,18.9
2023-05-22T09:33:05.386Z,18.8
2023-05-22T09:38:43.590Z,19.1
2023-05-22T09:44:51.137Z,19.7
2023-05-22T09:50:48.560Z,20.3
2023-05-22T09:56:31.054Z,19.8
2023-05-22T10:02:16.346Z,19.8
2023-05-22T10:08:00.783Z,19.7
2023-05-22T10:13:37.925Z,20.4
2023-05-22T10:19:14.950Z,20.7
2023-05-22T10:25:16.620Z,20.9
2023-05-22T10:31:21.541Z,21.5
2023-05-22T10:37:17.208Z,22
2023-05-22T10:42:59.273Z,23
2023-05-22T10:48:34.529Z,23.8
2023-05-22T10:54:11.899Z,22.9
2023-05-22T10:59:48.919Z,22.4
2023-05-22T11:05:25.171Z,22.9
2023-05-22T11:11:05.249Z,23.2
2023-05-22T11:17:00.823Z,23.4
2023-05-22T11:22:46.528Z,23.8
2023-05-22T11:28:23.010Z,25.8
2023-05-22T11:34:39.434Z,24.8
2023-05-22T11:40:15.470Z,23.7
2023-05-22T11:45:59.303Z,24.7
2023-05-22T11:52:20.838Z,24.8
2023-05-22T11:58:14.576Z,25.4
2023-05-22T12:04:10.064Z,25.8
2023-05-22T12:09:47.314Z,24.8
2023-05-22T12:15:50.338Z,24.4
2023-05-22T12:21:30.325Z,24.9
2023-05-22T12:27:06.888Z,25.9
2023-05-22T12:32:46.214Z,25.9
2023-05-22T12:38:26.877Z,25.9
2023-05-22T12:44:14.474Z,25.5
2023-05-22T12:50:12.276Z,24.7
2023-05-22T12:55:46.698Z,23
2023-05-22T13:01:24.503Z,22.1
2023-05-22T13:07:11.696Z,21.7
2023-05-22T13:12:47.592Z,21.5
2023-05-22T13:18:26.656Z,21.6
2023-05-22T13:24:05.182Z,22.4
2023-05-22T13:30:01.491Z,23.4
2023-05-22T13:35:39.791Z,24.3
2023-05-22T13:41:17.167Z,24.7
2023-05-22T13:46:54.060Z,24.6
2023-05-22T13:52:30.743Z,24.9
2023-05-22T13:58:17.769Z,23.3
2023-05-22T14:03:57.585Z,21.4
2023-05-22T14:09:34.227Z,20.6
2023-05-22T14:15:14.292Z,20.3
2023-05-22T14:20:50.635Z,19.9
2023-05-22T14:26:46.121Z,19.9
2023-05-22T14:32:28.933Z,19.8
2023-05-22T14:38:05.293Z,20.2
2023-05-22T14:44:33.233Z,20.5
2023-05-22T14:50:56.193Z,20.5
2023-05-22T14:56:30.781Z,20.7
2023-05-22T15:02:06.771Z,21.5
2023-05-22T15:07:45.733Z,23.8
2023-05-22T15:13:32.191Z,23.8
2023-05-22T15:19:08.975Z,24.2
2023-05-22T15:24:45.802Z,25.3
2023-05-22T15:30:24.784Z,27.2
2023-05-22T15:36:10.839Z,31.7
2023-05-22T15:42:05.649Z,26.1
2023-05-22T15:47:51.945Z,23.7
2023-05-22T15:53:52.210Z,23.7
2023-05-22T15:59:32.286Z,23.6
2023-05-22T16:05:10.790Z,23.5
2023-05-22T16:10:57.539Z,25.1
2023-05-22T16:16:34.687Z,30.5
2023-05-22T16:22:12.738Z,34.5
2023-05-22T16:27:49.593Z,32.9
2023-05-22T16:33:25.010Z,33
2023-05-22T16:39:00.978Z,34.8
2023-05-22T16:44:38.019Z,36.9
2023-05-22T16:50:35.590Z,32.1
2023-05-22T16:56:10.029Z,28.1
2023-05-22T17:01:50.853Z,26.3
2023-05-22T17:07:29.286Z,24.8
2023-05-22T17:13:34.028Z,24.4
2023-05-22T17:19:10.781Z,23.4
2023-05-22T17:24:49.549Z,22.4
2023-05-22T17:30:28.901Z,21.7
2023-05-22T17:36:19.128Z,21.1
2023-05-22T17:42:11.580Z,20.5
2023-05-22T17:47:47.381Z,20
2023-05-22T17:53:24.114Z,19.9
2023-05-22T17:59:00.683Z,19.7
2023-05-22T18:04:38.262Z,19.2
2023-05-22T18:10:14.387Z,19
2023-05-22T18:15:50.615Z,19
2023-05-22T18:21:27.293Z,18.8
2023-05-22T18:27:03.394Z,18.8
2023-05-22T18:32:39.833Z,18.6
2023-05-22T18:38:16.936Z,18.5
2023-05-22T18:43:56.092Z,18.4
2023-05-22T18:49:56.352Z,18.4
2023-05-22T18:55:29.892Z,18.2
2023-05-22T19:01:11.621Z,18
2023-05-22T19:06:54.859Z,18
2023-05-22T19:12:31.307Z,18
2023-05-22T19:18:12.287Z,17.9
2023-05-22T19:23:48.098Z,18
2023-05-22T19:29:24.001Z,17.6
2023-05-22T19:35:00.582Z,17.3
2023-05-22T19:40:44.642Z,17.1
2023-05-22T19:46:23.025Z,17
2023-05-22T19:52:31.887Z,17.2
2023-05-22T19:58:04.814Z,17.1
2023-05-22T20:04:14.319Z,17.1
2023-05-22T20:09:54.224Z,17.2
2023-05-22T20:15:55.261Z,17.2
2023-05-22T20:21:37.512Z,17.7
2023-05-22T20:27:14.300Z,17.8
2023-05-22T20:32:49.819Z,17.8
2023-05-22T20:38:26.596Z,17.8
2023-05-22T20:44:03.035Z,17.9
2023-05-22T20:49:38.550Z,17.9
2023-05-22T20:55:14.838Z,17.9
2023-05-22T21:00:54.002Z,17.9
2023-05-22T21:06:30.607Z,17.9
2023-05-22T21:12:06.890Z,17.9
2023-05-22T21:17:43.810Z,17.9
2023-05-22T21:23:21.557Z,17.9
2023-05-22T21:29:29.547Z,17.8
2023-05-22T21:35:10.053Z,17.8
2023-05-22T21:40:48.401Z,17.8
2023-05-22T21:46:30.703Z,17.7
2023-05-22T21:52:28.611Z,17.7
2023-05-22T21:58:02.361Z,17.7
2023-05-22T22:03:44.234Z,17.7
2023-05-22T22:09:21.039Z,17.6
2023-05-22T22:14:56.686Z,17.6
2023-05-22T22:20:43.140Z,17.6
2023-05-22T22:26:24.557Z,17.6
2023-05-22T22:32:06.626Z,17.6
2023-05-22T22:37:45.649Z,17.5
2023-05-22T22:43:30.574Z,17.5
2023-05-22T22:49:34.325Z,17.4
2023-05-22T22:55:07.298Z,17.4
2023-05-22T23:00:57.343Z,17.3
2023-05-22T23:07:13.923Z,17.2
2023-05-22T23:13:10.896Z,17.1
2023-05-22T23:18:53.352Z,17
2023-05-22T23:24:29.799Z,17
2023-05-22T23:30:06.376Z,16.9
2023-05-22T23:35:42.639Z,16.8
2023-05-22T23:41:18.716Z,16.8
2023-05-22T23:46:56.487Z,16.8
2023-05-22T23:52:33.813Z,16.8
2023-05-22T23:58:13.194Z,16.8
